createdAt,value
2019-04-19T00:00:32.811Z,1016.18
2019-04-19T00:01:14.431Z,1016.19
2019-04-19T00:01:59.391Z,1016.15
2019-04-19T00:02:39.920Z,1016.18
2019-04-19T00:03:20.033Z,1016.18
2019-04-19T00:04:03.277Z,1016.15
2019-04-19T00:04:39.314Z,1016.18
2019-04-19T00:05:17.932Z,1016.2
2019-04-19T00:05:58.203Z,1016.2
2019-04-19T00:06:41.334Z,1016.2
2019-04-19T00:07:22.815Z,1016.24
2019-04-19T00:08:15.158Z,1016.22
2019-04-19T00:08:59.838Z,1016.24
2019-04-19T00:09:30.641Z,1016.22
2019-04-19T00:10:05.666Z,1016.21
2019-04-19T00:10:48.301Z,1016.21
2019-04-19T00:11:31.348Z,1016.22
2019-04-19T00:12:17.894Z,1016.2
2019-04-19T00:12:50.270Z,1016.19
2019-04-19T00:13:24.291Z,1016.24
2019-04-19T00:14:04.697Z,1016.25
2019-04-19T00:14:46.492Z,1016.21
2019-04-19T00:15:26.544Z,1016.26
2019-04-19T00:16:06.776Z,1016.28
2019-04-19T00:16:46.947Z,1016.22
2019-04-19T00:17:29.343Z,1016.27
2019-04-19T00:18:10.907Z,1016.24
2019-04-19T00:19:03.030Z,1016.22
2019-04-19T00:19:44.218Z,1016.22
2019-04-19T00:20:42.907Z,1016.25
2019-04-19T00:21:06.678Z,1016.23
2019-04-19T00:21:44.494Z,1016.23
2019-04-19T00:22:38.450Z,1016.23
2019-04-19T00:23:04.029Z,1016.21
2019-04-19T00:23:36.522Z,1016.26
2019-04-19T00:24:11.841Z,1016.22
2019-04-19T00:24:52.320Z,1016.22
2019-04-19T00:25:32.427Z,1016.21
2019-04-19T00:26:12.701Z,1016.21
2019-04-19T00:26:52.781Z,1016.23
2019-04-19T00:27:41.309Z,1016.22
2019-04-19T00:28:20.514Z,1016.22
2019-04-19T00:28:56.282Z,1016.23
2019-04-19T00:29:41.338Z,1016.22
2019-04-19T00:30:25.964Z,1016.23
2019-04-19T00:31:11.398Z,1016.22
2019-04-19T00:31:45.036Z,1016.22
2019-04-19T00:32:27.691Z,1016.25
2019-04-19T00:33:08.822Z,1016.21
2019-04-19T00:33:41.398Z,1016.25
2019-04-19T00:34:16.742Z,1016.26
2019-04-19T00:34:57.179Z,1016.24
2019-04-19T00:35:37.555Z,1016.28
2019-04-19T00:36:18.546Z,1016.23
2019-04-19T00:36:59.374Z,1016.25
2019-04-19T00:37:38.746Z,1016.26
2019-04-19T00:38:35.639Z,1016.28
2019-04-19T00:39:18.355Z,1016.27
2019-04-19T00:39:52.670Z,1016.23
2019-04-19T00:40:34.921Z,1016.27
2019-04-19T00:41:17.516Z,1016.24
2019-04-19T00:42:00.812Z,1016.25
2019-04-19T00:42:35.267Z,1016.27
2019-04-19T00:43:15.826Z,1016.27
2019-04-19T00:43:57.482Z,1016.25
2019-04-19T00:44:45.234Z,1016.27
2019-04-19T00:45:18.397Z,1016.26
2019-04-19T00:46:04.183Z,1016.25
2019-04-19T00:46:37.819Z,1016.27
2019-04-19T00:47:23.040Z,1016.26
2019-04-19T00:47:58.261Z,1016.28
2019-04-19T00:48:39.553Z,1016.23
2019-04-19T00:49:15.743Z,1016.28
2019-04-19T00:49:56.601Z,1016.26
2019-04-19T00:50:37.988Z,1016.24
2019-04-19T00:51:17.156Z,1016.23
2019-04-19T00:51:59.683Z,1016.25
2019-04-19T00:52:41.898Z,1016.27
2019-04-19T00:53:18.085Z,1016.22
2019-04-19T00:53:59.669Z,1016.26
2019-04-19T00:54:36.518Z,1016.28
2019-04-19T00:55:16.435Z,1016.25
2019-04-19T00:55:59.623Z,1016.27
2019-04-19T00:56:37.044Z,1016.26
2019-04-19T00:57:18.022Z,1016.28
2019-04-19T00:57:58.612Z,1016.27
2019-04-19T00:58:34.129Z,1016.27
2019-04-19T00:59:14.244Z,1016.28
2019-04-19T00:59:53.710Z,1016.31
2019-04-19T01:00:35.494Z,1016.27
2019-04-19T01:01:17.914Z,1016.31
2019-04-19T01:02:00.682Z,1016.31
2019-04-19T01:02:34.214Z,1016.31
2019-04-19T01:03:15.980Z,1016.29
2019-04-19T01:03:55.608Z,1016.31
2019-04-19T01:04:36.363Z,1016.29
2019-04-19T01:05:18.409Z,1016.31
2019-04-19T01:06:01.811Z,1016.31
2019-04-19T01:06:43.640Z,1016.3
2019-04-19T01:07:22.776Z,1016.33
2019-04-19T01:07:59.943Z,1016.34
2019-04-19T01:08:48.648Z,1016.36
2019-04-19T01:09:30.863Z,1016.29
2019-04-19T01:10:14.607Z,1016.33
2019-04-19T01:10:49.314Z,1016.31
2019-04-19T01:11:31.344Z,1016.37
2019-04-19T01:12:14.755Z,1016.34
2019-04-19T01:12:52.335Z,1016.37
2019-04-19T01:13:36.627Z,1016.37
2019-04-19T01:14:13.679Z,1016.36
2019-04-19T01:14:49.574Z,1016.38
2019-04-19T01:15:28.763Z,1016.39
2019-04-19T01:16:12.808Z,1016.39
2019-04-19T01:16:54.315Z,1016.39
2019-04-19T01:17:36.386Z,1016.39
2019-04-19T01:18:14.615Z,1016.44
2019-04-19T01:18:52.111Z,1016.44
2019-04-19T01:19:24.270Z,1016.4
2019-04-19T01:20:07.387Z,1016.39
2019-04-19T01:20:45.860Z,1016.41
2019-04-19T01:21:25.958Z,1016.38
2019-04-19T01:22:10.248Z,1016.42
2019-04-19T01:22:48.666Z,1016.4
2019-04-19T01:23:26.875Z,1016.39
2019-04-19T01:24:08.089Z,1016.38
2019-04-19T01:24:49.458Z,1016.4
2019-04-19T01:25:29.350Z,1016.41
2019-04-19T01:26:10.535Z,1016.42
2019-04-19T01:26:51.378Z,1016.4
2019-04-19T01:27:31.378Z,1016.42
2019-04-19T01:28:15.530Z,1016.44
2019-04-19T01:28:53.481Z,1016.45
2019-04-19T01:29:36.874Z,1016.44
2019-04-19T01:30:10.483Z,1016.42
2019-04-19T01:30:50.846Z,1016.45
2019-04-19T01:31:32.216Z,1016.45
2019-04-19T01:32:14.884Z,1016.47
2019-04-19T01:32:56.138Z,1016.48
2019-04-19T01:33:36.446Z,1016.47
2019-04-19T01:34:17.916Z,1016.45
2019-04-19T01:35:00.791Z,1016.48
2019-04-19T01:35:38.936Z,1016.48
2019-04-19T01:36:14.583Z,1016.44
2019-04-19T01:36:54.741Z,1016.47
2019-04-19T01:37:34.832Z,1016.46
2019-04-19T01:38:15.193Z,1016.45
2019-04-19T01:39:12.920Z,1016.42
2019-04-19T01:39:52.138Z,1016.45
2019-04-19T01:40:28.093Z,1016.45
2019-04-19T01:41:11.696Z,1016.44
2019-04-19T01:41:47.735Z,1016.48
2019-04-19T01:42:36.535Z,1016.46
2019-04-19T01:43:10.735Z,1016.45
2019-04-19T01:43:51.738Z,1016.45
2019-04-19T01:44:37.879Z,1016.48
2019-04-19T01:45:13.272Z,1016.49
2019-04-19T01:45:52.862Z,1016.4
2019-04-19T01:46:37.699Z,1016.45
2019-04-19T01:47:11.218Z,1016.46
2019-04-19T01:47:53.860Z,1016.43
2019-04-19T01:48:39.058Z,1016.47
2019-04-19T01:49:12.563Z,1016.47
2019-04-19T01:49:56.196Z,1016.44
2019-04-19T01:50:37.966Z,1016.47
2019-04-19T01:51:15.698Z,1016.45
2019-04-19T01:52:02.269Z,1016.46
2019-04-19T01:52:56.929Z,1016.46
2019-04-19T01:53:24.025Z,1016.48
2019-04-19T01:54:02.860Z,1016.49
2019-04-19T01:54:39.385Z,1016.49
2019-04-19T01:55:14.775Z,1016.48
2019-04-19T01:55:46.449Z,1016.48
2019-04-19T01:56:26.319Z,1016.49
2019-04-19T01:57:09.659Z,1016.5
2019-04-19T01:57:47.203Z,1016.48
2019-04-19T01:58:27.307Z,1016.48
2019-04-19T01:59:07.837Z,1016.47
2019-04-19T01:59:52.700Z,1016.49
2019-04-19T02:00:34.632Z,1016.48
2019-04-19T02:01:15.364Z,1016.5
2019-04-19T02:01:50.478Z,1016.47
2019-04-19T02:02:30.936Z,1016.47
2019-04-19T02:03:11.048Z,1016.46
2019-04-19T02:03:52.401Z,1016.48
2019-04-19T02:04:32.913Z,1016.47
2019-04-19T02:05:14.999Z,1016.49
2019-04-19T02:05:55.477Z,1016.47
2019-04-19T02:06:36.714Z,1016.47
2019-04-19T02:07:19.604Z,1016.49
2019-04-19T02:07:56.422Z,1016.49
2019-04-19T02:08:40.950Z,1016.48
2019-04-19T02:09:25.813Z,1016.48
2019-04-19T02:10:09.602Z,1016.49
2019-04-19T02:10:43.826Z,1016.5
2019-04-19T02:11:27.305Z,1016.53
2019-04-19T02:12:06.133Z,1016.51
2019-04-19T02:12:44.581Z,1016.54
2019-04-19T02:13:23.905Z,1016.52
2019-04-19T02:14:03.464Z,1016.53
2019-04-19T02:14:46.234Z,1016.5
2019-04-19T02:15:27.851Z,1016.55
2019-04-19T02:15:59.111Z,1016.55
2019-04-19T02:16:38.657Z,1016.54
2019-04-19T02:17:19.914Z,1016.55
2019-04-19T02:17:59.277Z,1016.55
2019-04-19T02:18:41.044Z,1016.54
2019-04-19T02:19:23.145Z,1016.57
2019-04-19T02:20:05.190Z,1016.57
2019-04-19T02:20:45.607Z,1016.58
2019-04-19T02:21:26.056Z,1016.55
2019-04-19T02:22:07.104Z,1016.62
2019-04-19T02:22:42.713Z,1016.63
2019-04-19T02:23:22.617Z,1016.58
2019-04-19T02:24:04.180Z,1016.63
2019-04-19T02:24:49.119Z,1016.6
2019-04-19T02:25:29.133Z,1016.59
2019-04-19T02:26:10.494Z,1016.58
2019-04-19T02:26:53.805Z,1016.66
2019-04-19T02:27:33.783Z,1016.61
2019-04-19T02:28:08.856Z,1016.6
2019-04-19T02:28:49.137Z,1016.64
2019-04-19T02:29:31.248Z,1016.64
2019-04-19T02:30:19.161Z,1016.64
2019-04-19T02:31:06.013Z,1016.65
2019-04-19T02:31:53.474Z,1016.66
2019-04-19T02:32:27.437Z,1016.66
2019-04-19T02:33:14.736Z,1016.7
2019-04-19T02:34:03.087Z,1016.69
2019-04-19T02:35:59.595Z,1016.68
2019-04-19T02:36:43.912Z,1016.67
2019-04-19T02:37:56.943Z,1016.73
2019-04-19T02:38:46.108Z,1016.68
2019-04-19T02:39:28.552Z,1016.72
2019-04-19T02:41:24.191Z,1016.72
2019-04-19T02:42:05.756Z,1016.74
2019-04-19T02:43:51.009Z,1016.73
2019-04-19T02:44:49.208Z,1016.73
2019-04-19T02:45:22.105Z,1016.77
2019-04-19T02:46:22.739Z,1016.78
2019-04-19T02:46:49.696Z,1016.8
2019-04-19T02:48:06.123Z,1016.79
2019-04-19T02:48:53.526Z,1016.82
2019-04-19T02:49:35.395Z,1016.82
2019-04-19T02:51:07.473Z,1016.81
2019-04-19T02:51:29.539Z,1016.79
2019-04-19T02:53:29.379Z,1016.83
2019-04-19T02:54:09.431Z,1016.82
2019-04-19T02:54:57.984Z,1016.8
2019-04-19T02:55:26.373Z,1016.82
2019-04-19T02:56:23.361Z,1016.86
2019-04-19T02:57:01.864Z,1016.79
2019-04-19T02:58:11.227Z,1016.8
2019-04-19T02:58:47.891Z,1016.82
2019-04-19T02:59:38.440Z,1016.82
2019-04-19T03:00:21.135Z,1016.8
2019-04-19T03:00:54.306Z,1016.79
2019-04-19T03:01:44.121Z,1016.83
2019-04-19T03:02:24.051Z,1016.83
2019-04-19T03:03:45.356Z,1016.85
2019-04-19T03:04:36.095Z,1016.83
2019-04-19T03:04:59.974Z,1016.86
2019-04-19T03:05:31.530Z,1016.85
2019-04-19T03:06:08.546Z,1016.89
2019-04-19T03:06:38.733Z,1016.89
2019-04-19T03:07:13.896Z,1016.85
2019-04-19T03:07:53.800Z,1016.89
2019-04-19T03:08:33.429Z,1016.91
2019-04-19T03:09:13.645Z,1016.84
2019-04-19T03:09:54.068Z,1016.85
2019-04-19T03:10:49.802Z,1016.89
2019-04-19T03:11:30.835Z,1016.85
2019-04-19T03:12:09.734Z,1016.84
2019-04-19T03:12:53.745Z,1016.88
2019-04-19T03:13:30.647Z,1016.85
2019-04-19T03:14:11.749Z,1016.86
2019-04-19T03:14:50.259Z,1016.83
2019-04-19T03:15:40.848Z,1016.85
2019-04-19T03:16:14.328Z,1016.83
2019-04-19T03:16:57.742Z,1016.84
2019-04-19T03:18:23.093Z,1016.85
2019-04-19T03:18:51.645Z,1016.82
2019-04-19T03:19:30.174Z,1016.84
2019-04-19T03:20:16.293Z,1016.82
2019-04-19T03:20:53.838Z,1016.86
2019-04-19T03:21:37.161Z,1016.84
2019-04-19T03:22:20.144Z,1016.85
2019-04-19T03:22:58.197Z,1016.85
2019-04-19T03:23:32.818Z,1016.86
2019-04-19T03:24:14.017Z,1016.87
2019-04-19T03:24:59.299Z,1016.84
2019-04-19T03:25:35.623Z,1016.86
2019-04-19T03:26:19.466Z,1016.82
2019-04-19T03:26:53.000Z,1016.85
2019-04-19T03:27:37.535Z,1016.87
2019-04-19T03:28:15.009Z,1016.91
2019-04-19T03:28:49.938Z,1016.87
2019-04-19T03:29:31.814Z,1016.87
2019-04-19T03:30:22.973Z,1016.91
2019-04-19T03:31:13.719Z,1016.91
2019-04-19T03:31:58.577Z,1016.87
2019-04-19T03:32:44.483Z,1016.91
2019-04-19T03:33:16.898Z,1016.91
2019-04-19T03:33:58.395Z,1016.93
2019-04-19T03:34:40.468Z,1016.92
2019-04-19T03:35:03.504Z,1016.93
2019-04-19T03:35:53.739Z,1016.93
2019-04-19T03:36:24.438Z,1016.93
2019-04-19T03:37:03.488Z,1016.93
2019-04-19T03:38:29.322Z,1016.91
2019-04-19T03:39:17.623Z,1016.91
2019-04-19T03:39:51.190Z,1016.94
2019-04-19T03:40:27.975Z,1016.91
2019-04-19T03:41:18.295Z,1016.95
2019-04-19T03:42:34.750Z,1016.95
2019-04-19T03:43:18.082Z,1016.97
2019-04-19T03:43:51.631Z,1016.94
2019-04-19T03:44:30.455Z,1017.01
2019-04-19T03:45:12.645Z,1016.98
2019-04-19T03:45:55.861Z,1016.96
2019-04-19T03:46:36.318Z,1016.96
2019-04-19T03:47:14.851Z,1017
2019-04-19T03:47:56.538Z,1017
2019-04-19T03:48:38.869Z,1017
2019-04-19T03:49:23.349Z,1016.97
2019-04-19T03:49:56.938Z,1017.04
2019-04-19T03:50:36.910Z,1017
2019-04-19T03:51:13.335Z,1017.01
2019-04-19T03:52:08.001Z,1017.03
2019-04-19T03:52:36.764Z,1017.02
2019-04-19T03:53:17.212Z,1017.01
2019-04-19T03:53:59.968Z,1016.97
2019-04-19T03:54:38.586Z,1017.02
2019-04-19T03:55:18.757Z,1017.02
2019-04-19T03:56:06.143Z,1017.03
2019-04-19T03:56:37.569Z,1017.03
2019-04-19T03:57:18.246Z,1017.02
2019-04-19T03:57:51.963Z,1017.04
2019-04-19T03:58:26.618Z,1017.05
2019-04-19T03:59:04.982Z,1017.02
2019-04-19T03:59:45.828Z,1017.02
2019-04-19T04:00:26.068Z,1017.03
2019-04-19T04:01:06.641Z,1017.07
2019-04-19T04:01:51.319Z,1017.07
2019-04-19T04:02:31.446Z,1017.03
2019-04-19T04:03:16.107Z,1017.07
2019-04-19T04:03:49.670Z,1017.06
2019-04-19T04:04:30.760Z,1017.07
2019-04-19T04:05:11.097Z,1017.07
2019-04-19T04:05:51.627Z,1017.05
2019-04-19T04:06:32.603Z,1017.09
2019-04-19T04:07:13.925Z,1017.09
2019-04-19T04:07:56.809Z,1017.11
2019-04-19T04:08:31.334Z,1017.14
2019-04-19T04:09:12.464Z,1017.15
2019-04-19T04:09:54.441Z,1017.08
2019-04-19T04:10:36.036Z,1017.13
2019-04-19T04:11:17.390Z,1017.11
2019-04-19T04:12:00.933Z,1017.14
2019-04-19T04:12:44.791Z,1017.13
2019-04-19T04:13:25.059Z,1017.11
2019-04-19T04:14:07.180Z,1017.1
2019-04-19T04:14:49.422Z,1017.13
2019-04-19T04:15:24.537Z,1017.09
2019-04-19T04:16:07.527Z,1017.1
2019-04-19T04:16:39.570Z,1017.11
2019-04-19T04:17:16.405Z,1017.1
2019-04-19T04:17:56.415Z,1017.1
2019-04-19T04:18:36.589Z,1017.1
2019-04-19T04:19:16.841Z,1017.09
2019-04-19T04:19:57.234Z,1017.14
2019-04-19T04:20:42.744Z,1017.13
2019-04-19T04:21:20.194Z,1017.13
2019-04-19T04:21:58.816Z,1017.11
2019-04-19T04:22:42.465Z,1017.1
2019-04-19T04:23:27.052Z,1017.13
2019-04-19T04:24:10.848Z,1017.13
2019-04-19T04:24:51.920Z,1017.14
2019-04-19T04:25:26.590Z,1017.14
2019-04-19T04:26:06.536Z,1017.16
2019-04-19T04:26:52.634Z,1017.15
2019-04-19T04:27:35.829Z,1017.16
2019-04-19T05:07:09.582Z,1017.46
2019-04-19T05:07:56.617Z,1017.47
2019-04-19T05:08:34.988Z,1017.48
2019-04-19T05:09:08.532Z,1017.53
2019-04-19T05:09:52.960Z,1017.53
2019-04-19T05:10:31.467Z,1017.55
2019-04-19T05:11:15.829Z,1017.56
2019-04-19T05:12:02.686Z,1017.55
2019-04-19T05:12:46.028Z,1017.53
2019-04-19T05:13:27.215Z,1017.58
2019-04-19T05:13:55.743Z,1017.57
2019-04-19T05:14:35.891Z,1017.59
2019-04-19T05:15:19.742Z,1017.59
2019-04-19T05:15:57.649Z,1017.61
2019-04-19T05:16:44.172Z,1017.62
2019-04-19T05:17:26.072Z,1017.62
2019-04-19T05:18:04.800Z,1017.62
2019-04-19T05:18:38.752Z,1017.59
2019-04-19T05:19:17.672Z,1017.62
2019-04-19T05:20:03.332Z,1017.63
2019-04-19T05:20:35.464Z,1017.63
2019-04-19T05:21:21.237Z,1017.63
2019-04-19T05:22:00.503Z,1017.67
2019-04-19T05:22:32.445Z,1017.7
2019-04-19T05:23:21.985Z,1017.69
2019-04-19T05:24:04.800Z,1017.72
2019-04-19T05:24:51.053Z,1017.75
2019-04-19T05:25:30.621Z,1017.74
2019-04-19T05:26:07.367Z,1017.77
2019-04-19T05:26:44.500Z,1017.76
2019-04-19T05:27:26.331Z,1017.78
2019-04-19T05:28:07.032Z,1017.82
2019-04-19T05:28:40.597Z,1017.82
2019-04-19T05:29:19.503Z,1017.81
2019-04-19T05:29:51.527Z,1017.81
2019-04-19T05:30:40.108Z,1017.74
2019-04-19T05:31:16.391Z,1017.79
2019-04-19T05:31:53.226Z,1017.83
2019-04-19T05:32:34.171Z,1017.83
2019-04-19T05:33:19.512Z,1017.8
2019-04-19T05:34:10.932Z,1017.86
2019-04-19T05:34:45.025Z,1017.86
2019-04-19T05:35:22.251Z,1017.84
2019-04-19T05:36:13.484Z,1017.85
2019-04-19T05:36:49.582Z,1017.86
2019-04-19T05:37:34.988Z,1017.87
2019-04-19T05:38:07.038Z,1017.94
2019-04-19T05:38:57.187Z,1017.94
2019-04-19T05:39:36.863Z,1017.96
2019-04-19T05:40:15.039Z,1017.92
2019-04-19T05:40:49.843Z,1017.95
2019-04-19T05:41:29.563Z,1017.94
2019-04-19T05:42:10.413Z,1017.96
2019-04-19T05:42:52.283Z,1018
2019-04-19T05:43:51.124Z,1017.99
2019-04-19T05:44:29.487Z,1018
2019-04-19T05:45:04.494Z,1018
2019-04-19T05:45:42.566Z,1018.02
2019-04-19T05:46:20.832Z,1018.02
2019-04-19T05:46:58.194Z,1018.05
2019-04-19T05:47:33.121Z,1018.05
2019-04-19T05:48:16.528Z,1018.04
2019-04-19T05:48:48.637Z,1018.09
2019-04-19T05:49:37.668Z,1018.07
2019-04-19T05:50:25.358Z,1018.12
2019-04-19T05:51:08.600Z,1018.08
2019-04-19T05:51:43.202Z,1018.11
2019-04-19T05:52:22.469Z,1018.09
2019-04-19T05:52:58.348Z,1018.05
2019-04-19T05:53:32.928Z,1018.11
2019-04-19T05:54:08.775Z,1018.12
2019-04-19T05:54:45.516Z,1018.09
2019-04-19T05:55:26.092Z,1018.11
2019-04-19T05:56:07.011Z,1018.13
2019-04-19T05:56:51.622Z,1018.12
2019-04-19T05:57:45.326Z,1018.09
2019-04-19T05:58:16.249Z,1018.12
2019-04-19T05:58:59.812Z,1018.12
2019-04-19T05:59:42.314Z,1018.1
2019-04-19T06:00:25.539Z,1018.15
2019-04-19T06:01:05.519Z,1018.12
2019-04-19T06:01:46.530Z,1018.13
2019-04-19T06:02:24.278Z,1018.17
2019-04-19T06:03:05.010Z,1018.18
2019-04-19T06:03:50.064Z,1018.17
2019-04-19T06:04:31.033Z,1018.19
2019-04-19T06:05:20.097Z,1018.16
2019-04-19T06:06:00.779Z,1018.19
2019-04-19T06:06:37.116Z,1018.17
2019-04-19T06:07:11.980Z,1018.19
2019-04-19T06:07:48.630Z,1018.22
2019-04-19T06:08:22.670Z,1018.21
2019-04-19T06:08:58.253Z,1018.23
2019-04-19T06:09:38.893Z,1018.22
2019-04-19T06:10:19.203Z,1018.25
2019-04-19T06:11:02.727Z,1018.22
2019-04-19T06:11:41.605Z,1018.23
2019-04-19T06:12:23.496Z,1018.26
2019-04-19T06:13:04.153Z,1018.25
2019-04-19T06:13:43.866Z,1018.26
2019-04-19T06:14:44.702Z,1018.25
2019-04-19T06:15:21.588Z,1018.27
2019-04-19T06:15:59.385Z,1018.28
2019-04-19T06:16:38.716Z,1018.27
2019-04-19T06:17:16.318Z,1018.25
2019-04-19T06:18:00.212Z,1018.28
2019-04-19T06:18:34.973Z,1018.25
2019-04-19T06:19:23.505Z,1018.35
2019-04-19T06:19:54.060Z,1018.27
2019-04-19T06:20:37.911Z,1018.29
2019-04-19T06:21:22.907Z,1018.26
2019-04-19T06:21:56.672Z,1018.25
2019-04-19T06:22:45.949Z,1018.21
2019-04-19T06:23:23.462Z,1018.25
2019-04-19T06:24:05.322Z,1018.21
2019-04-19T06:24:42.234Z,1018.25
2019-04-19T06:25:32.665Z,1018.19
2019-04-19T06:26:26.261Z,1018.26
2019-04-19T06:27:35.092Z,1018.24
2019-04-19T06:28:56.968Z,1018.24
2019-04-19T06:29:30.935Z,1018.27
2019-04-19T06:30:14.568Z,1018.26
2019-04-19T06:30:50.161Z,1018.24
2019-04-19T06:31:30.907Z,1018.2
2019-04-19T06:32:14.991Z,1018.26
2019-04-19T06:32:55.916Z,1018.24
2019-04-19T06:33:31.413Z,1018.23
2019-04-19T06:34:15.669Z,1018.25
2019-04-19T06:34:48.938Z,1018.27
2019-04-19T06:35:26.668Z,1018.27
2019-04-19T06:35:59.307Z,1018.26
2019-04-19T06:36:35.420Z,1018.29
2019-04-19T06:37:21.100Z,1018.31
2019-04-19T06:37:56.835Z,1018.35
2019-04-19T06:38:36.394Z,1018.32
2019-04-19T06:39:16.798Z,1018.34
2019-04-19T06:40:03.673Z,1018.32
2019-04-19T06:40:39.311Z,1018.36
2019-04-19T06:41:22.022Z,1018.35
2019-04-19T06:42:04.266Z,1018.34
2019-04-19T06:42:46.056Z,1018.37
2019-04-19T06:43:34.602Z,1018.34
2019-04-19T06:44:10.296Z,1018.37
2019-04-19T06:44:55.701Z,1018.37
2019-04-19T06:45:34.241Z,1018.39
2019-04-19T06:46:13.004Z,1018.37
2019-04-19T06:46:49.900Z,1018.36
2019-04-19T06:47:30.074Z,1018.38
2019-04-19T06:48:09.132Z,1018.38
2019-04-19T06:48:49.992Z,1018.39
2019-04-19T06:49:26.605Z,1018.37
2019-04-19T06:50:04.786Z,1018.41
2019-04-19T06:50:46.801Z,1018.41
2019-04-19T06:51:33.230Z,1018.42
2019-04-19T06:52:11.727Z,1018.39
2019-04-19T06:52:46.511Z,1018.37
2019-04-19T06:53:31.349Z,1018.41
2019-04-19T06:54:09.361Z,1018.38
2019-04-19T06:54:48.071Z,1018.37
2019-04-19T06:55:32.642Z,1018.4
2019-04-19T06:56:16.257Z,1018.41
2019-04-19T06:56:56.205Z,1018.42
2019-04-19T06:57:34.105Z,1018.41
2019-04-19T06:58:15.521Z,1018.45
2019-04-19T06:58:57.547Z,1018.46
2019-04-19T06:59:41.781Z,1018.43
2019-04-19T07:00:22.292Z,1018.44
2019-04-19T07:01:03.032Z,1018.44
2019-04-19T07:01:39.180Z,1018.47
2019-04-19T07:02:11.504Z,1018.45
2019-04-19T07:02:52.138Z,1018.47
2019-04-19T07:03:32.337Z,1018.5
2019-04-19T07:04:12.805Z,1018.44
2019-04-19T07:05:08.739Z,1018.45
2019-04-19T07:05:46.085Z,1018.44
2019-04-19T07:06:31.986Z,1018.46
2019-04-19T07:07:14.616Z,1018.46
2019-04-19T07:08:02.144Z,1018.48
2019-04-19T07:08:55.648Z,1018.45
2019-04-19T07:09:20.724Z,1018.45
2019-04-19T07:10:02.314Z,1018.5
2019-04-19T07:10:42.449Z,1018.49
2019-04-19T07:11:16.009Z,1018.48
2019-04-19T07:12:01.681Z,1018.47
2019-04-19T07:12:39.877Z,1018.45
2019-04-19T07:13:12.505Z,1018.45
2019-04-19T07:13:50.700Z,1018.43
2019-04-19T07:14:24.197Z,1018.38
2019-04-19T07:15:29.979Z,1018.4
2019-04-19T07:16:18.976Z,1018.42
2019-04-19T07:16:39.060Z,1018.37
2019-04-19T07:17:20.018Z,1018.41
2019-04-19T07:17:53.300Z,1018.44
2019-04-19T07:18:36.780Z,1018.41
2019-04-19T07:19:24.262Z,1018.46
2019-04-19T07:19:57.292Z,1018.43
2019-04-19T07:20:33.570Z,1018.43
2019-04-19T07:21:21.133Z,1018.45
2019-04-19T07:21:58.908Z,1018.42
2019-04-19T07:22:41.120Z,1018.41
2019-04-19T07:23:24.068Z,1018.46
2019-04-19T07:24:07.766Z,1018.46
2019-04-19T07:25:04.510Z,1018.48
2019-04-19T07:25:30.288Z,1018.44
2019-04-19T07:26:09.649Z,1018.44
2019-04-19T07:26:46.657Z,1018.4
2019-04-19T07:27:22.265Z,1018.44
2019-04-19T07:27:58.114Z,1018.46
2019-04-19T07:28:32.330Z,1018.41
2019-04-19T07:29:08.966Z,1018.45
2019-04-19T07:29:50.515Z,1018.5
2019-04-19T07:30:30.733Z,1018.45
2019-04-19T07:31:12.752Z,1018.45
2019-04-19T07:31:51.205Z,1018.43
2019-04-19T07:32:36.011Z,1018.41
2019-04-19T07:33:14.564Z,1018.48
2019-04-19T07:34:03.367Z,1018.47
2019-04-19T07:34:47.621Z,1018.46
2019-04-19T07:35:34.600Z,1018.42
2019-04-19T07:36:11.419Z,1018.44
2019-04-19T07:36:49.429Z,1018.43
2019-04-19T07:37:29.994Z,1018.45
2019-04-19T07:38:20.913Z,1018.46
2019-04-19T07:38:57.413Z,1018.45
2019-04-19T07:39:33.513Z,1018.43
2019-04-19T07:40:17.336Z,1018.44
2019-04-19T07:40:54.019Z,1018.45
2019-04-19T07:41:32.702Z,1018.53
2019-04-19T07:42:16.730Z,1018.47
2019-04-19T07:42:56.119Z,1018.48
2019-04-19T07:43:28.291Z,1018.46
2019-04-19T07:44:09.608Z,1018.5
2019-04-19T07:44:45.745Z,1018.44
2019-04-19T07:45:24.614Z,1018.51
2019-04-19T07:46:19.159Z,1018.49
2019-04-19T07:46:55.464Z,1018.48
2019-04-19T07:47:29.326Z,1018.53
2019-04-19T07:48:07.935Z,1018.56
2019-04-19T07:48:40.846Z,1018.58
2019-04-19T07:49:23.312Z,1018.58
2019-04-19T07:50:10.991Z,1018.55
2019-04-19T07:50:53.477Z,1018.55
2019-04-19T07:51:29.974Z,1018.52
2019-04-19T07:52:12.283Z,1018.52
2019-04-19T07:52:50.421Z,1018.51
2019-04-19T07:53:31.940Z,1018.54
2019-04-19T07:54:09.538Z,1018.56
2019-04-19T07:54:46.666Z,1018.6
2019-04-19T07:55:26.743Z,1018.57
2019-04-19T07:56:17.200Z,1018.59
2019-04-19T07:57:01.365Z,1018.51
2019-04-19T07:58:01.604Z,1018.55
2019-04-19T07:58:36.799Z,1018.55
2019-04-19T07:59:09.846Z,1018.59
2019-04-19T07:59:54.314Z,1018.53
2019-04-19T08:01:14.832Z,1018.58
2019-04-19T08:02:44.918Z,1018.61
2019-04-19T08:03:24.300Z,1018.56
2019-04-19T08:04:08.501Z,1018.54
2019-04-19T08:04:57.101Z,1018.6
2019-04-19T08:05:14.963Z,1018.59
2019-04-19T08:06:39.338Z,1018.59
2019-04-19T08:08:46.373Z,1018.62
2019-04-19T08:09:18.664Z,1018.66
2019-04-19T08:10:54.558Z,1018.61
2019-04-19T08:12:41.952Z,1018.63
2019-04-19T08:13:31.059Z,1018.64
2019-04-19T08:14:00.816Z,1018.68
2019-04-19T08:14:47.672Z,1018.68
2019-04-19T08:17:41.161Z,1018.67
2019-04-19T08:17:58.501Z,1018.82
2019-04-19T08:27:58.493Z,1018.63
2019-04-19T08:28:36.144Z,1018.66
2019-04-19T08:29:21.880Z,1018.65
2019-04-19T08:29:57.738Z,1018.71
2019-04-19T08:30:37.737Z,1018.63
2019-04-19T08:31:12.077Z,1018.63
2019-04-19T08:31:51.183Z,1018.67
2019-04-19T08:32:32.274Z,1018.73
2019-04-19T08:33:12.612Z,1018.68
2019-04-19T08:33:53.170Z,1018.64
2019-04-19T08:34:34.487Z,1018.63
2019-04-19T08:35:15.841Z,1018.72
2019-04-19T08:35:56.890Z,1018.65
2019-04-19T08:36:43.374Z,1018.62
2019-04-19T08:37:20.391Z,1018.68
2019-04-19T08:38:02.603Z,1018.67
2019-04-19T08:38:40.193Z,1018.67
2019-04-19T08:40:17.901Z,1018.69
2019-04-19T08:40:37.210Z,1018.7
2019-04-19T08:40:52.818Z,1018.75
2019-04-19T08:41:25.306Z,1018.65
2019-04-19T08:42:53.724Z,1018.62
2019-04-19T08:43:07.137Z,1018.69
2019-04-19T08:43:37.684Z,1018.71
2019-04-19T08:44:17.876Z,1018.64
2019-04-19T08:44:49.062Z,1018.64
2019-04-19T08:45:24.656Z,1018.69
2019-04-19T08:46:02.560Z,1018.64
2019-04-19T08:46:43.078Z,1018.67
2019-04-19T08:47:30.233Z,1018.61
2019-04-19T08:48:11.783Z,1018.66
2019-04-19T08:48:49.251Z,1018.63
2019-04-19T08:49:30.000Z,1018.69
2019-04-19T08:50:07.043Z,1018.66
2019-04-19T08:50:48.536Z,1018.65
2019-04-19T08:51:29.875Z,1018.75
2019-04-19T08:52:12.098Z,1018.68
2019-04-19T08:52:54.224Z,1018.68
2019-04-19T08:53:42.452Z,1018.69
2019-04-19T08:54:30.985Z,1018.65
2019-04-19T08:55:08.604Z,1018.67
2019-04-19T08:55:48.751Z,1018.72
2019-04-19T08:56:22.923Z,1018.64
2019-04-19T08:56:57.119Z,1018.73
2019-04-19T08:57:32.203Z,1018.66
2019-04-19T08:58:23.961Z,1018.63
2019-04-19T08:59:05.676Z,1018.67
2019-04-19T08:59:52.560Z,1018.69
2019-04-19T09:00:40.694Z,1018.67
2019-04-19T09:01:13.638Z,1018.63
2019-04-19T09:01:55.654Z,1018.69
2019-04-19T09:02:28.431Z,1018.7
2019-04-19T09:03:07.171Z,1018.66
2019-04-19T09:03:56.828Z,1018.66
2019-04-19T09:04:34.291Z,1018.62
2019-04-19T09:05:14.318Z,1018.58
2019-04-19T09:06:10.629Z,1018.66
2019-04-19T09:07:59.085Z,1018.64
2019-04-19T09:08:36.913Z,1018.62
2019-04-19T09:09:18.429Z,1018.56
2019-04-19T09:10:11.875Z,1018.57
2019-04-19T09:10:55.616Z,1018.58
2019-04-19T09:11:15.918Z,1018.58
2019-04-19T09:12:01.305Z,1018.51
2019-04-19T09:12:34.172Z,1018.63
2019-04-19T09:13:27.543Z,1018.58
2019-04-19T09:14:00.192Z,1018.6
2019-04-19T09:14:39.344Z,1018.52
2019-04-19T09:15:19.996Z,1018.55
2019-04-19T09:16:00.450Z,1018.55
2019-04-19T09:16:41.323Z,1018.5
2019-04-19T09:17:29.689Z,1018.52
2019-04-19T09:18:50.213Z,1018.53
2019-04-19T09:19:34.518Z,1018.57
2019-04-19T09:20:18.255Z,1018.53
2019-04-19T09:20:43.931Z,1018.49